sensor_id;sensor_type;location;lat;lon;timestamp;temperature;humidity
2226;DHT22;1119;48.288;8.726;2024-01-06T00:00:45;6.30;99.90
2226;DHT22;1119;48.288;8.726;2024-01-06T00:03:35;6.40;99.90
2226;DHT22;1119;48.288;8.726;2024-01-06T00:06:24;6.30;99.90
2226;DHT22;1119;48.288;8.726;2024-01-06T00:09:13;6.30;99.90
2226;DHT22;1119;48.288;8.726;2024-01-06T00:12:00;6.40;99.90
2226;DHT22;1119;48.288;8.726;2024-01-06T00:14:48;6.30;99.90
2226;DHT22;1119;48.288;8.726;2024-01-06T00:17:36;6.10;99.90
2226;DHT22;1119;48.288;8.726;2024-01-06T00:20:24;6.10;99.90
2226;DHT22;1119;48.288;8.726;2024-01-06T00:23:11;6.20;99.90
2226;DHT22;1119;48.288;8.726;2024-01-06T00:26:00;6.10;99.90
2226;DHT22;1119;48.288;8.726;2024-01-06T00:28:48;6.10;99.90
2226;DHT22;1119;48.288;8.726;2024-01-06T00:31:36;6.20;99.90
2226;DHT22;1119;48.288;8.726;2024-01-06T00:34:23;6.20;99.90
2226;DHT22;1119;48.288;8.726;2024-01-06T00:37:14;6.20;99.90
2226;DHT22;1119;48.288;8.726;2024-01-06T00:40:01;6.20;99.90
2226;DHT22;1119;48.288;8.726;2024-01-06T00:42:51;6.30;99.90
2226;DHT22;1119;48.288;8.726;2024-01-06T00:45:39;6.30;99.90
2226;DHT22;1119;48.288;8.726;2024-01-06T00:48:26;6.30;99.90
2226;DHT22;1119;48.288;8.726;2024-01-06T00:51:14;6.40;99.90
2226;DHT22;1119;48.288;8.726;2024-01-06T00:54:02;6.40;99.90
2226;DHT22;1119;48.288;8.726;2024-01-06T00:56:52;6.40;99.90
2226;DHT22;1119;48.288;8.726;2024-01-06T00:59:41;6.40;99.90
2226;DHT22;1119;48.288;8.726;2024-01-06T01:02:28;6.50;99.90
2226;DHT22;1119;48.288;8.726;2024-01-06T01:05:16;6.40;99.90
2226;DHT22;1119;48.288;8.726;2024-01-06T01:08:05;6.40;99.90
2226;DHT22;1119;48.288;8.726;2024-01-06T01:10:53;6.40;99.90
2226;DHT22;1119;48.288;8.726;2024-01-06T01:13:40;6.40;99.90
2226;DHT22;1119;48.288;8.726;2024-01-06T01:16:29;6.30;99.90
2226;DHT22;1119;48.288;8.726;2024-01-06T01:19:19;6.20;99.90
2226;DHT22;1119;48.288;8.726;2024-01-06T01:22:06;6.20;99.90
2226;DHT22;1119;48.288;8.726;2024-01-06T01:24:54;6.10;99.90
2226;DHT22;1119;48.288;8.726;2024-01-06T01:27:41;6.10;99.90
2226;DHT22;1119;48.288;8.726;2024-01-06T01:30:29;6.20;99.90
2226;DHT22;1119;48.288;8.726;2024-01-06T01:33:22;6.10;99.90
2226;DHT22;1119;48.288;8.726;2024-01-06T01:36:10;6.00;99.90
2226;DHT22;1119;48.288;8.726;2024-01-06T01:38:57;6.00;99.90
2226;DHT22;1119;48.288;8.726;2024-01-06T01:41:45;5.90;99.90
2226;DHT22;1119;48.288;8.726;2024-01-06T01:44:33;5.90;99.90
2226;DHT22;1119;48.288;8.726;2024-01-06T01:47:21;5.90;99.90
2226;DHT22;1119;48.288;8.726;2024-01-06T01:50:10;5.90;99.90
2226;DHT22;1119;48.288;8.726;2024-01-06T01:52:59;5.80;99.90
2226;DHT22;1119;48.288;8.726;2024-01-06T01:55:48;5.80;99.90
2226;DHT22;1119;48.288;8.726;2024-01-06T01:58:36;5.80;99.90
2226;DHT22;1119;48.288;8.726;2024-01-06T02:01:24;5.80;99.90
2226;DHT22;1119;48.288;8.726;2024-01-06T02:04:12;5.90;99.90
2226;DHT22;1119;48.288;8.726;2024-01-06T02:07:04;5.80;99.90
2226;DHT22;1119;48.288;8.726;2024-01-06T02:09:51;5.90;99.90
2226;DHT22;1119;48.288;8.726;2024-01-06T02:12:39;6.00;99.90
2226;DHT22;1119;48.288;8.726;2024-01-06T02:15:27;6.00;99.90
2226;DHT22;1119;48.288;8.726;2024-01-06T02:18:14;5.90;99.90
2226;DHT22;1119;48.288;8.726;2024-01-06T02:21:02;5.90;99.90
2226;DHT22;1119;48.288;8.726;2024-01-06T02:23:52;5.80;99.90
2226;DHT22;1119;48.288;8.726;2024-01-06T02:26:40;5.90;99.90
2226;DHT22;1119;48.288;8.726;2024-01-06T02:29:30;5.80;99.90
2226;DHT22;1119;48.288;8.726;2024-01-06T02:32:17;5.80;99.90
2226;DHT22;1119;48.288;8.726;2024-01-06T02:35:06;5.80;99.90
2226;DHT22;1119;48.288;8.726;2024-01-06T02:37:54;5.80;99.90
2226;DHT22;1119;48.288;8.726;2024-01-06T02:40:43;5.80;99.90
2226;DHT22;1119;48.288;8.726;2024-01-06T02:43:30;5.80;99.90
2226;DHT22;1119;48.288;8.726;2024-01-06T02:46:18;5.90;99.90
2226;DHT22;1119;48.288;8.726;2024-01-06T02:49:07;5.90;99.90
2226;DHT22;1119;48.288;8.726;2024-01-06T02:51:54;6.00;99.90
2226;DHT22;1119;48.288;8.726;2024-01-06T02:54:42;6.00;99.90
2226;DHT22;1119;48.288;8.726;2024-01-06T02:57:34;6.00;99.90
2226;DHT22;1119;48.288;8.726;2024-01-06T03:00:22;6.00;99.90
2226;DHT22;1119;48.288;8.726;2024-01-06T03:03:11;6.00;99.90
2226;DHT22;1119;48.288;8.726;2024-01-06T03:05:58;5.90;99.90
2226;DHT22;1119;48.288;8.726;2024-01-06T03:08:46;6.00;99.90
2226;DHT22;1119;48.288;8.726;2024-01-06T03:11:33;6.00;99.90
2226;DHT22;1119;48.288;8.726;2024-01-06T03:14:22;5.90;99.90
2226;DHT22;1119;48.288;8.726;2024-01-06T03:17:10;5.90;99.90
2226;DHT22;1119;48.288;8.726;2024-01-06T03:19:58;5.90;99.90
2226;DHT22;1119;48.288;8.726;2024-01-06T03:22:45;5.90;99.90
2226;DHT22;1119;48.288;8.726;2024-01-06T03:25:33;5.90;99.90
2226;DHT22;1119;48.288;8.726;2024-01-06T03:28:20;5.90;99.90
2226;DHT22;1119;48.288;8.726;2024-01-06T03:31:09;5.90;99.90
2226;DHT22;1119;48.288;8.726;2024-01-06T03:33:57;5.80;99.90
2226;DHT22;1119;48.288;8.726;2024-01-06T03:36:45;5.80;99.90
2226;DHT22;1119;48.288;8.726;2024-01-06T03:39:32;5.80;99.90
2226;DHT22;1119;48.288;8.726;2024-01-06T03:42:20;5.80;99.90
2226;DHT22;1119;48.288;8.726;2024-01-06T03:45:08;5.80;99.90
2226;DHT22;1119;48.288;8.726;2024-01-06T03:47:57;5.80;99.90
2226;DHT22;1119;48.288;8.726;2024-01-06T03:50:45;5.80;99.90
2226;DHT22;1119;48.288;8.726;2024-01-06T03:53:35;5.70;99.90
2226;DHT22;1119;48.288;8.726;2024-01-06T03:56:22;5.70;99.90
2226;DHT22;1119;48.288;8.726;2024-01-06T03:59:10;5.60;99.90
2226;DHT22;1119;48.288;8.726;2024-01-06T04:01:58;5.60;99.90
2226;DHT22;1119;48.288;8.726;2024-01-06T04:04:47;5.60;99.90
2226;DHT22;1119;48.288;8.726;2024-01-06T04:07:34;5.60;99.90
2226;DHT22;1119;48.288;8.726;2024-01-06T04:10:22;5.60;99.90
2226;DHT22;1119;48.288;8.726;2024-01-06T04:13:10;5.60;99.90
2226;DHT22;1119;48.288;8.726;2024-01-06T04:15:58;5.50;99.90
2226;DHT22;1119;48.288;8.726;2024-01-06T04:18:46;5.50;99.90
2226;DHT22;1119;48.288;8.726;2024-01-06T04:21:35;5.50;99.90
2226;DHT22;1119;48.288;8.726;2024-01-06T04:24:22;5.50;99.90
2226;DHT22;1119;48.288;8.726;2024-01-06T04:27:10;5.50;99.90
2226;DHT22;1119;48.288;8.726;2024-01-06T04:29:57;5.50;99.90
2226;DHT22;1119;48.288;8.726;2024-01-06T04:32:45;5.50;99.90
2226;DHT22;1119;48.288;8.726;2024-01-06T04:35:34;5.50;99.90
2226;DHT22;1119;48.288;8.726;2024-01-06T04:38:23;5.40;99.90
2226;DHT22;1119;48.288;8.726;2024-01-06T04:41:11;5.40;99.90
2226;DHT22;1119;48.288;8.726;2024-01-06T04:43:58;5.40;99.90
2226;DHT22;1119;48.288;8.726;2024-01-06T04:46:46;5.30;99.90
2226;DHT22;1119;48.288;8.726;2024-01-06T04:49:33;5.30;99.90
2226;DHT22;1119;48.288;8.726;2024-01-06T04:52:21;5.40;99.90
2226;DHT22;1119;48.288;8.726;2024-01-06T04:55:10;5.30;99.90
2226;DHT22;1119;48.288;8.726;2024-01-06T04:57:58;5.30;99.90
2226;DHT22;1119;48.288;8.726;2024-01-06T05:00:46;5.20;99.90
2226;DHT22;1119;48.288;8.726;2024-01-06T05:03:33;5.30;99.90
2226;DHT22;1119;48.288;8.726;2024-01-06T05:06:21;5.20;99.90
2226;DHT22;1119;48.288;8.726;2024-01-06T05:09:09;5.20;99.90
2226;DHT22;1119;48.288;8.726;2024-01-06T05:12:01;5.30;99.90
2226;DHT22;1119;48.288;8.726;2024-01-06T05:14:48;5.30;99.90
2226;DHT22;1119;48.288;8.726;2024-01-06T05:17:36;5.30;99.90
2226;DHT22;1119;48.288;8.726;2024-01-06T05:20:23;5.30;99.90
2226;DHT22;1119;48.288;8.726;2024-01-06T05:23:11;5.20;99.90
2226;DHT22;1119;48.288;8.726;2024-01-06T05:25:58;5.20;99.90
2226;DHT22;1119;48.288;8.726;2024-01-06T05:28:47;5.10;99.90
2226;DHT22;1119;48.288;8.726;2024-01-06T05:31:35;5.10;99.90
2226;DHT22;1119;48.288;8.726;2024-01-06T05:34:22;5.00;99.90
2226;DHT22;1119;48.288;8.726;2024-01-06T05:37:10;5.10;99.90
2226;DHT22;1119;48.288;8.726;2024-01-06T05:39:58;5.10;99.90
2226;DHT22;1119;48.288;8.726;2024-01-06T05:42:47;5.10;99.90
2226;DHT22;1119;48.288;8.726;2024-01-06T05:45:36;5.10;99.90
2226;DHT22;1119;48.288;8.726;2024-01-06T05:48:27;5.20;99.90
2226;DHT22;1119;48.288;8.726;2024-01-06T05:51:15;5.20;99.90
2226;DHT22;1119;48.288;8.726;2024-01-06T05:54:03;5.20;99.90
2226;DHT22;1119;48.288;8.726;2024-01-06T05:56:50;5.20;99.90
2226;DHT22;1119;48.288;8.726;2024-01-06T05:59:38;5.20;99.90
2226;DHT22;1119;48.288;8.726;2024-01-06T06:02:28;5.20;99.90
2226;DHT22;1119;48.288;8.726;2024-01-06T06:05:16;5.20;99.90
2226;DHT22;1119;48.288;8.726;2024-01-06T06:08:04;5.20;99.90
2226;DHT22;1119;48.288;8.726;2024-01-06T06:10:52;5.20;99.90
2226;DHT22;1119;48.288;8.726;2024-01-06T06:13:47;5.10;99.90
2226;DHT22;1119;48.288;8.726;2024-01-06T06:16:35;5.20;99.90
2226;DHT22;1119;48.288;8.726;2024-01-06T06:19:24;5.20;99.90
2226;DHT22;1119;48.288;8.726;2024-01-06T06:22:11;5.20;99.90
2226;DHT22;1119;48.288;8.726;2024-01-06T06:24:59;5.20;99.90
2226;DHT22;1119;48.288;8.726;2024-01-06T06:27:47;5.30;99.90
2226;DHT22;1119;48.288;8.726;2024-01-06T06:30:35;5.30;99.90
2226;DHT22;1119;48.288;8.726;2024-01-06T06:33:22;5.40;99.90
2226;DHT22;1119;48.288;8.726;2024-01-06T06:36:11;5.30;99.90
2226;DHT22;1119;48.288;8.726;2024-01-06T06:38:59;5.30;99.90
2226;DHT22;1119;48.288;8.726;2024-01-06T06:41:46;5.40;99.90
2226;DHT22;1119;48.288;8.726;2024-01-06T06:44:34;5.30;99.90
2226;DHT22;1119;48.288;8.726;2024-01-06T06:47:22;5.30;99.90
2226;DHT22;1119;48.288;8.726;2024-01-06T06:50:09;5.30;99.90
2226;DHT22;1119;48.288;8.726;2024-01-06T06:52:58;5.20;99.90
2226;DHT22;1119;48.288;8.726;2024-01-06T06:55:47;5.20;99.90
2226;DHT22;1119;48.288;8.726;2024-01-06T06:58:34;5.10;99.90
2226;DHT22;1119;48.288;8.726;2024-01-06T07:01:22;5.10;99.90
2226;DHT22;1119;48.288;8.726;2024-01-06T07:04:09;5.10;99.90
2226;DHT22;1119;48.288;8.726;2024-01-06T07:06:57;5.10;99.90
2226;DHT22;1119;48.288;8.726;2024-01-06T07:09:46;5.00;99.90
2226;DHT22;1119;48.288;8.726;2024-01-06T07:12:34;5.10;99.90
2226;DHT22;1119;48.288;8.726;2024-01-06T07:15:22;5.10;99.90
2226;DHT22;1119;48.288;8.726;2024-01-06T07:18:10;5.10;99.90
2226;DHT22;1119;48.288;8.726;2024-01-06T07:20:57;5.20;99.90
2226;DHT22;1119;48.288;8.726;2024-01-06T07:23:48;5.10;99.90
2226;DHT22;1119;48.288;8.726;2024-01-06T07:26:37;5.10;99.90
2226;DHT22;1119;48.288;8.726;2024-01-06T07:29:25;5.10;99.90
2226;DHT22;1119;48.288;8.726;2024-01-06T07:32:12;5.10;99.90
2226;DHT22;1119;48.288;8.726;2024-01-06T07:35:01;5.20;99.90
2226;DHT22;1119;48.288;8.726;2024-01-06T07:37:49;5.10;99.90
2226;DHT22;1119;48.288;8.726;2024-01-06T07:40:37;5.10;99.90
2226;DHT22;1119;48.288;8.726;2024-01-06T07:43:26;5.10;99.90
2226;DHT22;1119;48.288;8.726;2024-01-06T07:46:14;5.10;99.90
2226;DHT22;1119;48.288;8.726;2024-01-06T07:49:02;5.10;99.90
2226;DHT22;1119;48.288;8.726;2024-01-06T07:51:50;5.20;99.90
2226;DHT22;1119;48.288;8.726;2024-01-06T07:54:38;5.20;99.90
2226;DHT22;1119;48.288;8.726;2024-01-06T07:57:26;5.20;99.90
2226;DHT22;1119;48.288;8.726;2024-01-06T08:00:15;5.20;99.90
2226;DHT22;1119;48.288;8.726;2024-01-06T08:03:03;5.30;99.90
2226;DHT22;1119;48.288;8.726;2024-01-06T08:05:54;5.30;99.90
2226;DHT22;1119;48.288;8.726;2024-01-06T08:08:42;5.40;99.90
2226;DHT22;1119;48.288;8.726;2024-01-06T08:11:31;5.30;99.90
2226;DHT22;1119;48.288;8.726;2024-01-06T08:14:19;5.40;99.90
2226;DHT22;1119;48.288;8.726;2024-01-06T08:17:08;5.40;99.90
2226;DHT22;1119;48.288;8.726;2024-01-06T08:19:56;5.30;99.90
2226;DHT22;1119;48.288;8.726;2024-01-06T08:22:43;5.30;99.90
2226;DHT22;1119;48.288;8.726;2024-01-06T08:25:31;5.30;99.90
2226;DHT22;1119;48.288;8.726;2024-01-06T08:28:18;5.40;99.90
2226;DHT22;1119;48.288;8.726;2024-01-06T08:31:09;5.40;99.90
2226;DHT22;1119;48.288;8.726;2024-01-06T08:33:58;5.50;99.90
2226;DHT22;1119;48.288;8.726;2024-01-06T08:36:45;5.40;99.90
2226;DHT22;1119;48.288;8.726;2024-01-06T08:39:33;5.50;99.90
2226;DHT22;1119;48.288;8.726;2024-01-06T08:42:21;5.60;99.90
2226;DHT22;1119;48.288;8.726;2024-01-06T08:45:09;5.50;99.90
2226;DHT22;1119;48.288;8.726;2024-01-06T08:47:57;5.50;99.90
2226;DHT22;1119;48.288;8.726;2024-01-06T08:50:46;5.50;99.90
2226;DHT22;1119;48.288;8.726;2024-01-06T08:53:33;5.60;99.90
2226;DHT22;1119;48.288;8.726;2024-01-06T08:56:21;5.60;99.90
2226;DHT22;1119;48.288;8.726;2024-01-06T08:59:09;5.70;99.90
2226;DHT22;1119;48.288;8.726;2024-01-06T09:01:56;5.70;99.90
2226;DHT22;1119;48.288;8.726;2024-01-06T09:04:44;5.70;99.90
2226;DHT22;1119;48.288;8.726;2024-01-06T09:07:33;5.70;99.90
2226;DHT22;1119;48.288;8.726;2024-01-06T09:10:21;5.70;99.90
2226;DHT22;1119;48.288;8.726;2024-01-06T09:13:08;5.70;99.90
2226;DHT22;1119;48.288;8.726;2024-01-06T09:15:56;5.70;99.90
2226;DHT22;1119;48.288;8.726;2024-01-06T09:18:43;5.60;99.90
2226;DHT22;1119;48.288;8.726;2024-01-06T09:21:31;5.60;99.90
2226;DHT22;1119;48.288;8.726;2024-01-06T09:24:20;5.50;99.90
2226;DHT22;1119;48.288;8.726;2024-01-06T09:27:08;5.40;99.90
2226;DHT22;1119;48.288;8.726;2024-01-06T09:29:55;5.50;99.90
2226;DHT22;1119;48.288;8.726;2024-01-06T09:32:43;5.60;99.90
2226;DHT22;1119;48.288;8.726;2024-01-06T09:35:31;5.40;99.90
2226;DHT22;1119;48.288;8.726;2024-01-06T09:38:19;5.40;99.90
2226;DHT22;1119;48.288;8.726;2024-01-06T09:41:08;5.50;99.90
2226;DHT22;1119;48.288;8.726;2024-01-06T09:43:56;5.40;99.90
2226;DHT22;1119;48.288;8.726;2024-01-06T09:46:44;5.40;99.90
2226;DHT22;1119;48.288;8.726;2024-01-06T09:49:32;5.40;99.90
2226;DHT22;1119;48.288;8.726;2024-01-06T09:52:22;5.40;99.90
2226;DHT22;1119;48.288;8.726;2024-01-06T09:55:11;5.40;99.90
2226;DHT22;1119;48.288;8.726;2024-01-06T09:58:00;5.40;99.90
2226;DHT22;1119;48.288;8.726;2024-01-06T10:00:48;5.50;99.90
2226;DHT22;1119;48.288;8.726;2024-01-06T10:03:37;5.50;99.90
2226;DHT22;1119;48.288;8.726;2024-01-06T10:06:30;5.60;99.90
2226;DHT22;1119;48.288;8.726;2024-01-06T10:09:17;5.70;99.90
2226;DHT22;1119;48.288;8.726;2024-01-06T10:12:08;5.80;99.90
2226;DHT22;1119;48.288;8.726;2024-01-06T10:14:58;5.90;99.90
2226;DHT22;1119;48.288;8.726;2024-01-06T10:17:45;6.00;99.90
2226;DHT22;1119;48.288;8.726;2024-01-06T10:20:33;6.10;99.90
2226;DHT22;1119;48.288;8.726;2024-01-06T10:23:22;6.30;99.90
2226;DHT22;1119;48.288;8.726;2024-01-06T10:26:12;6.30;99.90
2226;DHT22;1119;48.288;8.726;2024-01-06T10:29:00;6.30;99.90
2226;DHT22;1119;48.288;8.726;2024-01-06T10:31:51;6.30;99.90
2226;DHT22;1119;48.288;8.726;2024-01-06T10:34:39;6.40;99.90
2226;DHT22;1119;48.288;8.726;2024-01-06T10:37:28;6.40;99.90
2226;DHT22;1119;48.288;8.726;2024-01-06T10:40:16;6.50;99.90
2226;DHT22;1119;48.288;8.726;2024-01-06T10:43:06;6.50;99.90
2226;DHT22;1119;48.288;8.726;2024-01-06T10:45:56;6.50;99.90
2226;DHT22;1119;48.288;8.726;2024-01-06T10:48:46;6.50;99.90
2226;DHT22;1119;48.288;8.726;2024-01-06T10:51:36;6.50;99.90
2226;DHT22;1119;48.288;8.726;2024-01-06T10:54:25;6.40;99.90
2226;DHT22;1119;48.288;8.726;2024-01-06T10:57:14;6.30;99.90
2226;DHT22;1119;48.288;8.726;2024-01-06T11:00:08;6.20;99.90
2226;DHT22;1119;48.288;8.726;2024-01-06T11:02:57;6.30;99.90
2226;DHT22;1119;48.288;8.726;2024-01-06T11:05:47;6.30;99.90
2226;DHT22;1119;48.288;8.726;2024-01-06T11:08:40;6.20;99.90
2226;DHT22;1119;48.288;8.726;2024-01-06T11:11:35;6.10;99.90
2226;DHT22;1119;48.288;8.726;2024-01-06T11:14:26;6.20;99.90
2226;DHT22;1119;48.288;8.726;2024-01-06T11:17:50;6.20;99.90
2226;DHT22;1119;48.288;8.726;2024-01-06T11:21:17;6.20;99.90
2226;DHT22;1119;48.288;8.726;2024-01-06T11:27:19;6.20;99.90
2226;DHT22;1119;48.288;8.726;2024-01-06T11:30:19;6.20;99.90
2226;DHT22;1119;48.288;8.726;2024-01-06T11:33:08;6.20;99.90
2226;DHT22;1119;48.288;8.726;2024-01-06T11:36:01;6.20;99.90
2226;DHT22;1119;48.288;8.726;2024-01-06T11:38:49;6.20;99.90
2226;DHT22;1119;48.288;8.726;2024-01-06T11:41:48;6.30;99.90
2226;DHT22;1119;48.288;8.726;2024-01-06T11:44:37;6.30;99.90
2226;DHT22;1119;48.288;8.726;2024-01-06T11:47:25;6.30;99.90
2226;DHT22;1119;48.288;8.726;2024-01-06T11:50:12;6.30;99.90
2226;DHT22;1119;48.288;8.726;2024-01-06T11:53:02;6.10;99.90
2226;DHT22;1119;48.288;8.726;2024-01-06T11:55:52;6.10;99.90
2226;DHT22;1119;48.288;8.726;2024-01-06T11:58:40;6.10;99.90
2226;DHT22;1119;48.288;8.726;2024-01-06T12:01:28;6.00;99.90
2226;DHT22;1119;48.288;8.726;2024-01-06T12:04:23;6.00;99.90
2226;DHT22;1119;48.288;8.726;2024-01-06T12:07:13;6.00;99.90
2226;DHT22;1119;48.288;8.726;2024-01-06T12:10:03;6.10;99.90
2226;DHT22;1119;48.288;8.726;2024-01-06T12:12:57;6.00;99.90
2226;DHT22;1119;48.288;8.726;2024-01-06T12:15:46;6.10;99.90
2226;DHT22;1119;48.288;8.726;2024-01-06T12:18:34;6.10;99.90
2226;DHT22;1119;48.288;8.726;2024-01-06T12:21:21;6.10;99.90
2226;DHT22;1119;48.288;8.726;2024-01-06T12:24:14;6.10;99.90
2226;DHT22;1119;48.288;8.726;2024-01-06T12:27:07;6.10;99.90
2226;DHT22;1119;48.288;8.726;2024-01-06T12:29:56;6.00;99.90
2226;DHT22;1119;48.288;8.726;2024-01-06T12:32:44;6.00;99.90
2226;DHT22;1119;48.288;8.726;2024-01-06T12:35:34;6.00;99.90
2226;DHT22;1119;48.288;8.726;2024-01-06T12:38:22;6.00;99.90
2226;DHT22;1119;48.288;8.726;2024-01-06T12:41:14;6.10;99.90
2226;DHT22;1119;48.288;8.726;2024-01-06T12:44:03;6.10;99.90
2226;DHT22;1119;48.288;8.726;2024-01-06T12:46:51;6.10;99.90
2226;DHT22;1119;48.288;8.726;2024-01-06T12:49:38;6.00;99.90
2226;DHT22;1119;48.288;8.726;2024-01-06T12:52:26;6.00;99.90
2226;DHT22;1119;48.288;8.726;2024-01-06T12:55:14;6.00;99.90
2226;DHT22;1119;48.288;8.726;2024-01-06T12:58:02;5.90;99.90
2226;DHT22;1119;48.288;8.726;2024-01-06T13:00:51;5.90;99.90
2226;DHT22;1119;48.288;8.726;2024-01-06T13:03:41;5.90;99.90
2226;DHT22;1119;48.288;8.726;2024-01-06T13:06:30;5.90;99.90
2226;DHT22;1119;48.288;8.726;2024-01-06T13:09:17;5.90;99.90
2226;DHT22;1119;48.288;8.726;2024-01-06T13:12:06;5.80;99.90
2226;DHT22;1119;48.288;8.726;2024-01-06T13:14:54;5.80;99.90
2226;DHT22;1119;48.288;8.726;2024-01-06T13:17:43;5.90;99.90
2226;DHT22;1119;48.288;8.726;2024-01-06T13:20:31;5.90;99.90
2226;DHT22;1119;48.288;8.726;2024-01-06T13:23:19;5.90;99.90
2226;DHT22;1119;48.288;8.726;2024-01-06T13:26:06;5.90;99.90
2226;DHT22;1119;48.288;8.726;2024-01-06T13:28:55;6.00;99.90
2226;DHT22;1119;48.288;8.726;2024-01-06T13:31:42;6.00;99.90
2226;DHT22;1119;48.288;8.726;2024-01-06T13:34:31;5.90;99.90
2226;DHT22;1119;48.288;8.726;2024-01-06T13:37:21;6.00;99.90
2226;DHT22;1119;48.288;8.726;2024-01-06T13:40:12;6.00;99.90
2226;DHT22;1119;48.288;8.726;2024-01-06T13:43:00;6.00;99.90
2226;DHT22;1119;48.288;8.726;2024-01-06T13:45:50;5.90;99.90
2226;DHT22;1119;48.288;8.726;2024-01-06T13:48:38;5.90;99.90
2226;DHT22;1119;48.288;8.726;2024-01-06T13:51:28;5.90;99.90
2226;DHT22;1119;48.288;8.726;2024-01-06T13:54:16;5.90;99.90
2226;DHT22;1119;48.288;8.726;2024-01-06T13:57:07;5.90;99.90
2226;DHT22;1119;48.288;8.726;2024-01-06T13:59:55;6.00;99.90
2226;DHT22;1119;48.288;8.726;2024-01-06T14:02:43;6.00;99.90
2226;DHT22;1119;48.288;8.726;2024-01-06T14:05:32;6.00;99.90
2226;DHT22;1119;48.288;8.726;2024-01-06T14:08:22;6.00;99.90
2226;DHT22;1119;48.288;8.726;2024-01-06T14:11:10;6.10;99.90
2226;DHT22;1119;48.288;8.726;2024-01-06T14:13:58;6.10;99.90
2226;DHT22;1119;48.288;8.726;2024-01-06T14:16:56;6.10;99.90
2226;DHT22;1119;48.288;8.726;2024-01-06T14:19:44;6.10;99.90
2226;DHT22;1119;48.288;8.726;2024-01-06T14:22:32;6.00;99.90
2226;DHT22;1119;48.288;8.726;2024-01-06T14:25:21;5.90;99.90
2226;DHT22;1119;48.288;8.726;2024-01-06T14:28:09;5.80;99.90
2226;DHT22;1119;48.288;8.726;2024-01-06T14:30:58;5.80;99.90
2226;DHT22;1119;48.288;8.726;2024-01-06T14:33:47;5.80;99.90
2226;DHT22;1119;48.288;8.726;2024-01-06T14:36:34;5.90;99.90
2226;DHT22;1119;48.288;8.726;2024-01-06T14:39:22;5.90;99.90
2226;DHT22;1119;48.288;8.726;2024-01-06T14:42:11;5.90;99.90
2226;DHT22;1119;48.288;8.726;2024-01-06T14:44:59;5.80;99.90
2226;DHT22;1119;48.288;8.726;2024-01-06T14:47:46;5.80;99.90
2226;DHT22;1119;48.288;8.726;2024-01-06T14:50:34;5.80;99.90
2226;DHT22;1119;48.288;8.726;2024-01-06T14:53:22;5.90;99.90
2226;DHT22;1119;48.288;8.726;2024-01-06T14:56:10;5.90;99.90
2226;DHT22;1119;48.288;8.726;2024-01-06T14:58:58;5.90;99.90
2226;DHT22;1119;48.288;8.726;2024-01-06T15:01:46;6.00;99.90
2226;DHT22;1119;48.288;8.726;2024-01-06T15:04:37;5.90;99.90
2226;DHT22;1119;48.288;8.726;2024-01-06T15:07:25;5.80;99.90
2226;DHT22;1119;48.288;8.726;2024-01-06T15:10:12;5.80;99.90
2226;DHT22;1119;48.288;8.726;2024-01-06T15:13:01;5.80;99.90
2226;DHT22;1119;48.288;8.726;2024-01-06T15:15:51;5.70;99.90
2226;DHT22;1119;48.288;8.726;2024-01-06T15:18:42;5.70;99.90
2226;DHT22;1119;48.288;8.726;2024-01-06T15:21:30;5.70;99.90
2226;DHT22;1119;48.288;8.726;2024-01-06T15:24:19;5.70;99.90
2226;DHT22;1119;48.288;8.726;2024-01-06T15:27:09;5.80;99.90
2226;DHT22;1119;48.288;8.726;2024-01-06T15:29:57;5.80;99.90
2226;DHT22;1119;48.288;8.726;2024-01-06T15:32:49;5.80;99.90
2226;DHT22;1119;48.288;8.726;2024-01-06T15:35:36;5.70;99.90
2226;DHT22;1119;48.288;8.726;2024-01-06T15:38:24;5.70;99.90
2226;DHT22;1119;48.288;8.726;2024-01-06T15:41:13;5.70;99.90
2226;DHT22;1119;48.288;8.726;2024-01-06T15:44:01;5.70;99.90
2226;DHT22;1119;48.288;8.726;2024-01-06T15:46:48;5.60;99.90
2226;DHT22;1119;48.288;8.726;2024-01-06T15:49:37;5.60;99.90
2226;DHT22;1119;48.288;8.726;2024-01-06T15:52:27;5.50;99.90
2226;DHT22;1119;48.288;8.726;2024-01-06T15:55:15;5.50;99.90
2226;DHT22;1119;48.288;8.726;2024-01-06T15:58:03;5.40;99.90
2226;DHT22;1119;48.288;8.726;2024-01-06T16:00:51;5.30;99.90
2226;DHT22;1119;48.288;8.726;2024-01-06T16:03:39;5.20;99.90
2226;DHT22;1119;48.288;8.726;2024-01-06T16:06:31;5.10;99.90
2226;DHT22;1119;48.288;8.726;2024-01-06T16:09:19;5.10;99.90
2226;DHT22;1119;48.288;8.726;2024-01-06T16:12:11;5.00;99.90
2226;DHT22;1119;48.288;8.726;2024-01-06T16:14:59;4.90;99.90
2226;DHT22;1119;48.288;8.726;2024-01-06T16:17:46;4.90;99.90
2226;DHT22;1119;48.288;8.726;2024-01-06T16:20:34;4.90;99.90
2226;DHT22;1119;48.288;8.726;2024-01-06T16:23:23;4.80;99.90
2226;DHT22;1119;48.288;8.726;2024-01-06T16:26:11;4.80;99.90
2226;DHT22;1119;48.288;8.726;2024-01-06T16:28:58;4.80;99.90
2226;DHT22;1119;48.288;8.726;2024-01-06T16:31:46;4.80;99.90
2226;DHT22;1119;48.288;8.726;2024-01-06T16:34:33;4.70;99.90
2226;DHT22;1119;48.288;8.726;2024-01-06T16:37:21;4.60;99.90
2226;DHT22;1119;48.288;8.726;2024-01-06T16:40:13;4.70;99.90
2226;DHT22;1119;48.288;8.726;2024-01-06T16:43:01;4.70;99.90
2226;DHT22;1119;48.288;8.726;2024-01-06T16:45:48;4.60;99.90
2226;DHT22;1119;48.288;8.726;2024-01-06T16:48:36;4.60;99.90
2226;DHT22;1119;48.288;8.726;2024-01-06T16:51:24;4.50;99.90
2226;DHT22;1119;48.288;8.726;2024-01-06T16:54:12;4.40;99.90
2226;DHT22;1119;48.288;8.726;2024-01-06T16:57:01;4.40;99.90
2226;DHT22;1119;48.288;8.726;2024-01-06T16:59:49;4.50;99.90
2226;DHT22;1119;48.288;8.726;2024-01-06T17:02:37;4.50;99.90
2226;DHT22;1119;48.288;8.726;2024-01-06T17:05:25;4.60;99.90
2226;DHT22;1119;48.288;8.726;2024-01-06T17:08:13;4.60;99.90
2226;DHT22;1119;48.288;8.726;2024-01-06T17:11:00;4.70;99.90
2226;DHT22;1119;48.288;8.726;2024-01-06T17:13:49;4.70;99.90
2226;DHT22;1119;48.288;8.726;2024-01-06T17:16:37;4.80;99.90
2226;DHT22;1119;48.288;8.726;2024-01-06T17:19:27;4.80;99.90
2226;DHT22;1119;48.288;8.726;2024-01-06T17:22:15;4.90;99.90
2226;DHT22;1119;48.288;8.726;2024-01-06T17:25:03;4.90;99.90
2226;DHT22;1119;48.288;8.726;2024-01-06T17:27:54;4.90;99.90
2226;DHT22;1119;48.288;8.726;2024-01-06T17:30:43;4.90;99.90
2226;DHT22;1119;48.288;8.726;2024-01-06T17:33:30;4.90;99.90
2226;DHT22;1119;48.288;8.726;2024-01-06T17:36:18;5.00;99.90
2226;DHT22;1119;48.288;8.726;2024-01-06T17:39:07;5.00;99.90
2226;DHT22;1119;48.288;8.726;2024-01-06T17:41:55;5.00;99.90
2226;DHT22;1119;48.288;8.726;2024-01-06T17:44:43;5.10;99.90
2226;DHT22;1119;48.288;8.726;2024-01-06T17:47:33;5.10;99.90
2226;DHT22;1119;48.288;8.726;2024-01-06T17:50:23;5.10;99.90
2226;DHT22;1119;48.288;8.726;2024-01-06T17:53:10;5.10;99.90
2226;DHT22;1119;48.288;8.726;2024-01-06T17:55:58;5.00;99.90
2226;DHT22;1119;48.288;8.726;2024-01-06T17:58:46;4.80;99.90
2226;DHT22;1119;48.288;8.726;2024-01-06T18:01:34;4.90;99.90
2226;DHT22;1119;48.288;8.726;2024-01-06T18:04:23;4.90;99.90
2226;DHT22;1119;48.288;8.726;2024-01-06T18:07:11;4.90;99.90
2226;DHT22;1119;48.288;8.726;2024-01-06T18:09:58;4.90;99.90
2226;DHT22;1119;48.288;8.726;2024-01-06T18:12:46;4.90;99.90
2226;DHT22;1119;48.288;8.726;2024-01-06T18:15:34;4.80;99.90
2226;DHT22;1119;48.288;8.726;2024-01-06T18:18:21;4.80;99.90
2226;DHT22;1119;48.288;8.726;2024-01-06T18:21:10;4.80;99.90
2226;DHT22;1119;48.288;8.726;2024-01-06T18:23:58;4.80;99.90
2226;DHT22;1119;48.288;8.726;2024-01-06T18:26:45;4.90;99.90
2226;DHT22;1119;48.288;8.726;2024-01-06T18:29:33;4.80;99.90
2226;DHT22;1119;48.288;8.726;2024-01-06T18:32:23;4.90;99.90
2226;DHT22;1119;48.288;8.726;2024-01-06T18:35:11;4.80;99.90
2226;DHT22;1119;48.288;8.726;2024-01-06T18:38:01;4.90;99.90
2226;DHT22;1119;48.288;8.726;2024-01-06T18:40:48;4.80;99.90